sensor_id;sensor_type;location;lat;lon;timestamp;P1;durP1;ratioP1;P2;durP2;ratioP2
60710;SDS011;46554;48.138;8.420;2023-05-23T00:00:45;2.13;;;0.40;;
60710;SDS011;46554;48.138;8.420;2023-05-23T00:03:11;0.65;;;0.63;;
60710;SDS011;46554;48.138;8.420;2023-05-23T00:05:40;1.38;;;1.17;;
60710;SDS011;46554;48.138;8.420;2023-05-23T00:08:05;3.30;;;0.80;;
60710;SDS011;46554;48.138;8.420;2023-05-23T00:10:33;0.82;;;0.82;;
60710;SDS011;46554;48.138;8.420;2023-05-23T00:13:00;1.48;;;1.38;;
60710;SDS011;46554;48.138;8.420;2023-05-23T00:15:26;1.45;;;1.35;;
60710;SDS011;46554;48.138;8.420;2023-05-23T00:17:54;1.05;;;0.93;;
60710;SDS011;46554;48.138;8.420;2023-05-23T00:20:20;2.28;;;1.08;;
60710;SDS011;46554;48.138;8.420;2023-05-23T00:22:48;1.15;;;1.05;;
60710;SDS011;46554;48.138;8.420;2023-05-23T00:25:14;0.70;;;0.70;;
60710;SDS011;46554;48.138;8.420;2023-05-23T00:27:41;1.30;;;1.08;;
60710;SDS011;46554;48.138;8.420;2023-05-23T00:30:07;1.95;;;0.95;;
60710;SDS011;46554;48.138;8.420;2023-05-23T00:32:32;1.15;;;0.68;;
60710;SDS011;46554;48.138;8.420;2023-05-23T00:34:59;0.85;;;0.73;;
60710;SDS011;46554;48.138;8.420;2023-05-23T00:37:24;1.00;;;0.82;;
60710;SDS011;46554;48.138;8.420;2023-05-23T00:39:50;1.35;;;1.25;;
60710;SDS011;46554;48.138;8.420;2023-05-23T00:42:15;1.02;;;0.88;;
60710;SDS011;46554;48.138;8.420;2023-05-23T00:44:41;1.85;;;1.17;;
60710;SDS011;46554;48.138;8.420;2023-05-23T00:47:06;0.85;;;0.85;;
60710;SDS011;46554;48.138;8.420;2023-05-23T00:49:32;1.60;;;1.17;;
60710;SDS011;46554;48.138;8.420;2023-05-23T00:52:00;0.45;;;0.45;;
60710;SDS011;46554;48.138;8.420;2023-05-23T00:54:27;0.20;;;0.20;;
60710;SDS011;46554;48.138;8.420;2023-05-23T00:56:55;0.63;;;0.63;;
60710;SDS011;46554;48.138;8.420;2023-05-23T00:59:21;0.63;;;0.63;;
60710;SDS011;46554;48.138;8.420;2023-05-23T01:01:51;1.65;;;1.25;;
60710;SDS011;46554;48.138;8.420;2023-05-23T01:04:18;0.95;;;0.95;;
60710;SDS011;46554;48.138;8.420;2023-05-23T01:06:44;0.95;;;0.95;;
60710;SDS011;46554;48.138;8.420;2023-05-23T01:09:16;1.27;;;1.25;;
60710;SDS011;46554;48.138;8.420;2023-05-23T01:14:18;2.15;;;1.40;;
60710;SDS011;46554;48.138;8.420;2023-05-23T01:16:57;2.72;;;1.83;;
60710;SDS011;46554;48.138;8.420;2023-05-23T01:21:53;2.92;;;0.98;;
60710;SDS011;46554;48.138;8.420;2023-05-23T01:24:35;0.85;;;0.85;;
60710;SDS011;46554;48.138;8.420;2023-05-23T01:29:41;0.98;;;0.98;;
60710;SDS011;46554;48.138;8.420;2023-05-23T01:32:09;2.40;;;1.50;;
60710;SDS011;46554;48.138;8.420;2023-05-23T01:34:36;1.33;;;1.23;;
60710;SDS011;46554;48.138;8.420;2023-05-23T01:37:03;2.15;;;1.35;;
60710;SDS011;46554;48.138;8.420;2023-05-23T01:39:34;0.55;;;0.55;;
60710;SDS011;46554;48.138;8.420;2023-05-23T01:42:00;1.40;;;1.17;;
60710;SDS011;46554;48.138;8.420;2023-05-23T01:44:26;3.50;;;1.58;;
60710;SDS011;46554;48.138;8.420;2023-05-23T01:46:55;2.08;;;1.45;;
60710;SDS011;46554;48.138;8.420;2023-05-23T01:49:20;1.08;;;0.77;;
60710;SDS011;46554;48.138;8.420;2023-05-23T01:51:46;1.45;;;0.50;;
60710;SDS011;46554;48.138;8.420;2023-05-23T01:54:15;1.77;;;1.05;;
60710;SDS011;46554;48.138;8.420;2023-05-23T01:56:43;1.10;;;0.80;;
60710;SDS011;46554;48.138;8.420;2023-05-23T01:59:09;1.27;;;1.17;;
60710;SDS011;46554;48.138;8.420;2023-05-23T02:01:34;0.73;;;0.73;;
60710;SDS011;46554;48.138;8.420;2023-05-23T02:04:03;1.02;;;1.02;;
60710;SDS011;46554;48.138;8.420;2023-05-23T02:06:31;1.02;;;1.02;;
60710;SDS011;46554;48.138;8.420;2023-05-23T02:08:56;8.65;;;1.25;;
60710;SDS011;46554;48.138;8.420;2023-05-23T02:11:21;1.98;;;1.77;;
60710;SDS011;46554;48.138;8.420;2023-05-23T02:13:47;1.38;;;1.23;;
60710;SDS011;46554;48.138;8.420;2023-05-23T02:16:12;4.38;;;0.93;;
60710;SDS011;46554;48.138;8.420;2023-05-23T02:18:38;3.88;;;1.70;;
60710;SDS011;46554;48.138;8.420;2023-05-23T02:21:06;2.42;;;1.38;;
60710;SDS011;46554;48.138;8.420;2023-05-23T02:23:32;2.38;;;1.42;;
60710;SDS011;46554;48.138;8.420;2023-05-23T02:25:57;1.05;;;0.88;;
60710;SDS011;46554;48.138;8.420;2023-05-23T02:28:24;0.55;;;0.55;;
60710;SDS011;46554;48.138;8.420;2023-05-23T02:30:50;0.93;;;0.93;;
60710;SDS011;46554;48.138;8.420;2023-05-23T02:33:15;1.08;;;0.98;;
60710;SDS011;46554;48.138;8.420;2023-05-23T02:35:41;0.98;;;0.95;;
60710;SDS011;46554;48.138;8.420;2023-05-23T02:38:07;3.38;;;1.60;;
60710;SDS011;46554;48.138;8.420;2023-05-23T02:40:32;1.13;;;1.10;;
60710;SDS011;46554;48.138;8.420;2023-05-23T02:42:58;2.15;;;1.77;;
60710;SDS011;46554;48.138;8.420;2023-05-23T02:45:23;0.65;;;0.65;;
60710;SDS011;46554;48.138;8.420;2023-05-23T02:47:48;0.75;;;0.68;;
60710;SDS011;46554;48.138;8.420;2023-05-23T02:50:14;4.72;;;2.78;;
60710;SDS011;46554;48.138;8.420;2023-05-23T02:52:41;1.30;;;1.08;;
60710;SDS011;46554;48.138;8.420;2023-05-23T02:55:08;5.70;;;1.63;;
60710;SDS011;46554;48.138;8.420;2023-05-23T02:57:33;4.47;;;1.95;;
60710;SDS011;46554;48.138;8.420;2023-05-23T02:59:59;1.50;;;1.13;;
60710;SDS011;46554;48.138;8.420;2023-05-23T03:02:24;1.38;;;1.33;;
60710;SDS011;46554;48.138;8.420;2023-05-23T03:04:49;1.45;;;1.35;;
60710;SDS011;46554;48.138;8.420;2023-05-23T03:07:15;2.97;;;1.17;;
60710;SDS011;46554;48.138;8.420;2023-05-23T03:09:40;1.15;;;1.10;;
60710;SDS011;46554;48.138;8.420;2023-05-23T03:12:06;5.10;;;2.05;;
60710;SDS011;46554;48.138;8.420;2023-05-23T03:14:31;1.50;;;1.40;;
60710;SDS011;46554;48.138;8.420;2023-05-23T03:16:57;1.52;;;1.13;;
60710;SDS011;46554;48.138;8.420;2023-05-23T03:19:24;1.88;;;1.67;;
60710;SDS011;46554;48.138;8.420;2023-05-23T03:21:50;1.52;;;1.27;;
60710;SDS011;46554;48.138;8.420;2023-05-23T03:24:18;0.43;;;0.43;;
60710;SDS011;46554;48.138;8.420;2023-05-23T03:26:43;0.90;;;0.90;;
60710;SDS011;46554;48.138;8.420;2023-05-23T03:29:09;0.50;;;0.50;;
60710;SDS011;46554;48.138;8.420;2023-05-23T03:31:36;1.10;;;1.10;;
60710;SDS011;46554;48.138;8.420;2023-05-23T03:34:02;1.60;;;1.08;;
60710;SDS011;46554;48.138;8.420;2023-05-23T03:36:29;1.38;;;0.95;;
60710;SDS011;46554;48.138;8.420;2023-05-23T03:38:57;0.95;;;0.80;;
60710;SDS011;46554;48.138;8.420;2023-05-23T03:41:22;0.82;;;0.82;;
60710;SDS011;46554;48.138;8.420;2023-05-23T03:43:48;1.02;;;1.00;;
60710;SDS011;46554;48.138;8.420;2023-05-23T03:46:14;1.92;;;1.75;;
60710;SDS011;46554;48.138;8.420;2023-05-23T03:48:39;0.98;;;0.98;;
60710;SDS011;46554;48.138;8.420;2023-05-23T03:51:05;1.13;;;1.02;;
60710;SDS011;46554;48.138;8.420;2023-05-23T03:53:35;0.77;;;0.77;;
60710;SDS011;46554;48.138;8.420;2023-05-23T03:56:02;2.55;;;1.85;;
60710;SDS011;46554;48.138;8.420;2023-05-23T03:58:28;4.53;;;1.23;;
60710;SDS011;46554;48.138;8.420;2023-05-23T04:00:53;4.55;;;1.70;;
60710;SDS011;46554;48.138;8.420;2023-05-23T04:03:21;2.88;;;1.05;;
60710;SDS011;46554;48.138;8.420;2023-05-23T04:05:47;2.05;;;1.42;;
60710;SDS011;46554;48.138;8.420;2023-05-23T04:08:13;1.08;;;0.98;;
60710;SDS011;46554;48.138;8.420;2023-05-23T04:10:38;0.77;;;0.60;;
60710;SDS011;46554;48.138;8.420;2023-05-23T04:13:06;1.38;;;0.40;;
60710;SDS011;46554;48.138;8.420;2023-05-23T04:15:31;0.52;;;0.52;;
60710;SDS011;46554;48.138;8.420;2023-05-23T04:18:01;2.63;;;1.23;;
60710;SDS011;46554;48.138;8.420;2023-05-23T04:20:27;0.88;;;0.88;;
60710;SDS011;46554;48.138;8.420;2023-05-23T04:22:55;2.50;;;1.27;;
60710;SDS011;46554;48.138;8.420;2023-05-23T04:25:20;1.92;;;1.27;;
60710;SDS011;46554;48.138;8.420;2023-05-23T04:27:48;1.95;;;1.67;;
60710;SDS011;46554;48.138;8.420;2023-05-23T04:30:16;2.55;;;0.88;;
60710;SDS011;46554;48.138;8.420;2023-05-23T04:32:43;6.53;;;1.67;;
60710;SDS011;46554;48.138;8.420;2023-05-23T04:35:08;1.52;;;1.10;;
60710;SDS011;46554;48.138;8.420;2023-05-23T04:37:36;1.20;;;1.15;;
60710;SDS011;46554;48.138;8.420;2023-05-23T04:40:03;1.42;;;1.33;;
60710;SDS011;46554;48.138;8.420;2023-05-23T04:42:32;2.88;;;1.95;;
60710;SDS011;46554;48.138;8.420;2023-05-23T04:44:57;1.65;;;1.48;;
60710;SDS011;46554;48.138;8.420;2023-05-23T04:47:23;1.17;;;0.95;;
60710;SDS011;46554;48.138;8.420;2023-05-23T04:49:52;1.45;;;1.35;;
60710;SDS011;46554;48.138;8.420;2023-05-23T04:52:19;1.77;;;0.82;;
60710;SDS011;46554;48.138;8.420;2023-05-23T04:54:44;12.57;;;1.50;;
60710;SDS011;46554;48.138;8.420;2023-05-23T04:57:12;1.65;;;1.27;;
60710;SDS011;46554;48.138;8.420;2023-05-23T04:59:41;3.45;;;2.13;;
60710;SDS011;46554;48.138;8.420;2023-05-23T05:02:10;1.27;;;1.20;;
60710;SDS011;46554;48.138;8.420;2023-05-23T05:04:38;2.58;;;2.20;;
60710;SDS011;46554;48.138;8.420;2023-05-23T05:07:05;3.05;;;1.48;;
60710;SDS011;46554;48.138;8.420;2023-05-23T05:09:31;2.05;;;1.65;;
60710;SDS011;46554;48.138;8.420;2023-05-23T05:11:57;1.20;;;1.10;;
60710;SDS011;46554;48.138;8.420;2023-05-23T05:14:23;1.33;;;1.17;;
60710;SDS011;46554;48.138;8.420;2023-05-23T05:16:49;2.08;;;1.88;;
60710;SDS011;46554;48.138;8.420;2023-05-23T05:19:15;3.53;;;1.67;;
60710;SDS011;46554;48.138;8.420;2023-05-23T05:21:46;1.33;;;1.23;;
60710;SDS011;46554;48.138;8.420;2023-05-23T05:24:11;6.25;;;2.97;;
60710;SDS011;46554;48.138;8.420;2023-05-23T05:26:37;1.67;;;1.50;;
60710;SDS011;46554;48.138;8.420;2023-05-23T05:29:05;1.75;;;1.27;;
60710;SDS011;46554;48.138;8.420;2023-05-23T05:31:30;3.55;;;2.72;;
60710;SDS011;46554;48.138;8.420;2023-05-23T05:33:57;2.60;;;2.38;;
60710;SDS011;46554;48.138;8.420;2023-05-23T05:36:23;3.88;;;1.60;;
60710;SDS011;46554;48.138;8.420;2023-05-23T05:38:49;3.75;;;1.98;;
60710;SDS011;46554;48.138;8.420;2023-05-23T05:41:15;1.92;;;1.73;;
60710;SDS011;46554;48.138;8.420;2023-05-23T05:43:42;2.97;;;1.80;;
60710;SDS011;46554;48.138;8.420;2023-05-23T05:46:09;3.03;;;2.15;;
60710;SDS011;46554;48.138;8.420;2023-05-23T05:48:37;1.08;;;1.02;;
60710;SDS011;46554;48.138;8.420;2023-05-23T05:51:02;2.15;;;1.52;;
60710;SDS011;46554;48.138;8.420;2023-05-23T05:53:28;2.47;;;1.92;;
60710;SDS011;46554;48.138;8.420;2023-05-23T05:55:53;2.08;;;1.88;;
60710;SDS011;46554;48.138;8.420;2023-05-23T05:58:19;3.40;;;2.38;;
60710;SDS011;46554;48.138;8.420;2023-05-23T06:00:44;4.65;;;2.90;;
60710;SDS011;46554;48.138;8.420;2023-05-23T06:03:10;2.38;;;1.75;;
60710;SDS011;46554;48.138;8.420;2023-05-23T06:05:36;3.80;;;1.63;;
60710;SDS011;46554;48.138;8.420;2023-05-23T06:08:03;6.03;;;2.00;;
60710;SDS011;46554;48.138;8.420;2023-05-23T06:10:28;2.45;;;2.25;;
60710;SDS011;46554;48.138;8.420;2023-05-23T06:12:56;1.08;;;1.00;;
60710;SDS011;46554;48.138;8.420;2023-05-23T06:15:22;2.70;;;2.20;;
60710;SDS011;46554;48.138;8.420;2023-05-23T06:17:48;1.63;;;1.20;;
60710;SDS011;46554;48.138;8.420;2023-05-23T06:20:13;4.70;;;1.98;;
60710;SDS011;46554;48.138;8.420;2023-05-23T06:22:38;1.48;;;1.38;;
60710;SDS011;46554;48.138;8.420;2023-05-23T06:25:04;2.88;;;1.15;;
60710;SDS011;46554;48.138;8.420;2023-05-23T06:27:30;3.00;;;2.38;;
60710;SDS011;46554;48.138;8.420;2023-05-23T06:29:56;1.30;;;1.13;;
60710;SDS011;46554;48.138;8.420;2023-05-23T06:32:23;3.20;;;1.85;;
60710;SDS011;46554;48.138;8.420;2023-05-23T06:34:49;2.00;;;1.52;;
60710;SDS011;46554;48.138;8.420;2023-05-23T06:37:14;3.72;;;1.48;;
60710;SDS011;46554;48.138;8.420;2023-05-23T06:39:40;2.65;;;2.25;;
60710;SDS011;46554;48.138;8.420;2023-05-23T06:42:08;2.72;;;1.70;;
60710;SDS011;46554;48.138;8.420;2023-05-23T06:44:33;3.13;;;2.15;;
60710;SDS011;46554;48.138;8.420;2023-05-23T06:46:59;2.45;;;1.58;;
60710;SDS011;46554;48.138;8.420;2023-05-23T06:49:24;3.50;;;2.72;;
60710;SDS011;46554;48.138;8.420;2023-05-23T06:51:52;2.13;;;1.70;;
60710;SDS011;46554;48.138;8.420;2023-05-23T06:54:18;2.97;;;2.15;;
60710;SDS011;46554;48.138;8.420;2023-05-23T06:56:45;2.13;;;1.98;;
60710;SDS011;46554;48.138;8.420;2023-05-23T06:59:13;2.85;;;2.35;;
60710;SDS011;46554;48.138;8.420;2023-05-23T07:01:41;4.53;;;2.53;;
60710;SDS011;46554;48.138;8.420;2023-05-23T07:04:06;2.28;;;2.08;;
60710;SDS011;46554;48.138;8.420;2023-05-23T07:06:31;5.63;;;1.98;;
60710;SDS011;46554;48.138;8.420;2023-05-23T07:09:02;3.15;;;2.13;;
60710;SDS011;46554;48.138;8.420;2023-05-23T07:11:32;7.28;;;3.13;;
60710;SDS011;46554;48.138;8.420;2023-05-23T07:14:03;3.53;;;2.88;;
60710;SDS011;46554;48.138;8.420;2023-05-23T07:16:28;4.85;;;4.15;;
60710;SDS011;46554;48.138;8.420;2023-05-23T07:18:54;4.22;;;3.25;;
60710;SDS011;46554;48.138;8.420;2023-05-23T07:21:19;3.55;;;2.47;;
60710;SDS011;46554;48.138;8.420;2023-05-23T07:23:45;4.32;;;2.92;;
60710;SDS011;46554;48.138;8.420;2023-05-23T07:26:10;3.30;;;1.60;;
60710;SDS011;46554;48.138;8.420;2023-05-23T07:28:35;4.35;;;2.55;;
60710;SDS011;46554;48.138;8.420;2023-05-23T07:31:01;5.53;;;4.68;;
60710;SDS011;46554;48.138;8.420;2023-05-23T07:33:27;12.88;;;6.32;;
60710;SDS011;46554;48.138;8.420;2023-05-23T07:35:52;5.25;;;3.25;;
60710;SDS011;46554;48.138;8.420;2023-05-23T07:38:17;12.57;;;4.15;;
60710;SDS011;46554;48.138;8.420;2023-05-23T07:40:43;5.68;;;3.00;;
60710;SDS011;46554;48.138;8.420;2023-05-23T07:43:08;5.10;;;4.63;;
60710;SDS011;46554;48.138;8.420;2023-05-23T07:45:33;3.95;;;3.45;;
60710;SDS011;46554;48.138;8.420;2023-05-23T07:47:59;6.68;;;3.85;;
60710;SDS011;46554;48.138;8.420;2023-05-23T07:50:24;6.50;;;4.07;;
60710;SDS011;46554;48.138;8.420;2023-05-23T07:52:51;5.18;;;3.88;;
60710;SDS011;46554;48.138;8.420;2023-05-23T07:55:17;7.30;;;4.82;;
60710;SDS011;46554;48.138;8.420;2023-05-23T07:57:42;6.72;;;4.90;;
60710;SDS011;46554;48.138;8.420;2023-05-23T08:00:08;9.48;;;2.70;;
60710;SDS011;46554;48.138;8.420;2023-05-23T08:02:34;7.82;;;4.90;;
60710;SDS011;46554;48.138;8.420;2023-05-23T08:05:01;5.50;;;3.90;;
60710;SDS011;46554;48.138;8.420;2023-05-23T08:07:27;8.52;;;5.32;;
60710;SDS011;46554;48.138;8.420;2023-05-23T08:09:52;9.90;;;3.40;;
60710;SDS011;46554;48.138;8.420;2023-05-23T08:12:20;8.60;;;5.63;;
60710;SDS011;46554;48.138;8.420;2023-05-23T08:14:48;6.25;;;4.07;;
60710;SDS011;46554;48.138;8.420;2023-05-23T08:17:13;4.75;;;4.07;;
60710;SDS011;46554;48.138;8.420;2023-05-23T08:19:41;15.60;;;6.53;;
60710;SDS011;46554;48.138;8.420;2023-05-23T08:22:07;5.57;;;3.00;;
60710;SDS011;46554;48.138;8.420;2023-05-23T08:24:33;9.07;;;3.95;;
60710;SDS011;46554;48.138;8.420;2023-05-23T08:26:58;8.23;;;4.47;;
60710;SDS011;46554;48.138;8.420;2023-05-23T08:29:26;15.07;;;4.05;;
60710;SDS011;46554;48.138;8.420;2023-05-23T08:31:52;6.65;;;4.22;;
60710;SDS011;46554;48.138;8.420;2023-05-23T08:34:17;4.65;;;3.22;;
60710;SDS011;46554;48.138;8.420;2023-05-23T08:36:42;4.43;;;3.85;;
60710;SDS011;46554;48.138;8.420;2023-05-23T08:39:08;5.82;;;3.50;;
60710;SDS011;46554;48.138;8.420;2023-05-23T08:41:33;1.95;;;1.65;;
60710;SDS011;46554;48.138;8.420;2023-05-23T08:43:59;8.50;;;3.47;;
60710;SDS011;46554;48.138;8.420;2023-05-23T08:46:25;6.72;;;3.03;;
60710;SDS011;46554;48.138;8.420;2023-05-23T08:48:56;4.20;;;2.78;;
60710;SDS011;46554;48.138;8.420;2023-05-23T08:51:26;7.03;;;3.40;;
60710;SDS011;46554;48.138;8.420;2023-05-23T08:53:52;3.97;;;3.00;;
60710;SDS011;46554;48.138;8.420;2023-05-23T08:56:22;1.90;;;1.75;;
60710;SDS011;46554;48.138;8.420;2023-05-23T08:58:52;6.57;;;3.55;;
60710;SDS011;46554;48.138;8.420;2023-05-23T09:01:17;4.53;;;2.95;;
60710;SDS011;46554;48.138;8.420;2023-05-23T09:03:44;15.73;;;4.38;;
60710;SDS011;46554;48.138;8.420;2023-05-23T09:06:10;4.28;;;3.10;;
60710;SDS011;46554;48.138;8.420;2023-05-23T09:08:36;7.45;;;3.95;;
60710;SDS011;46554;48.138;8.420;2023-05-23T09:11:02;8.85;;;3.55;;
60710;SDS011;46554;48.138;8.420;2023-05-23T09:13:30;2.92;;;1.98;;
60710;SDS011;46554;48.138;8.420;2023-05-23T09:16:00;4.57;;;3.53;;
60710;SDS011;46554;48.138;8.420;2023-05-23T09:18:34;10.20;;;3.63;;
60710;SDS011;46554;48.138;8.420;2023-05-23T09:21:01;13.68;;;4.15;;
60710;SDS011;46554;48.138;8.420;2023-05-23T09:23:30;7.13;;;4.03;;
60710;SDS011;46554;48.138;8.420;2023-05-23T09:26:04;9.88;;;3.78;;
60710;SDS011;46554;48.138;8.420;2023-05-23T09:28:34;3.42;;;2.60;;
60710;SDS011;46554;48.138;8.420;2023-05-23T09:31:01;7.10;;;2.65;;
60710;SDS011;46554;48.138;8.420;2023-05-23T09:35:59;3.20;;;2.55;;
60710;SDS011;46554;48.138;8.420;2023-05-23T09:38:25;4.25;;;3.67;;
60710;SDS011;46554;48.138;8.420;2023-05-23T09:40:53;7.50;;;2.85;;
60710;SDS011;46554;48.138;8.420;2023-05-23T09:43:20;5.20;;;3.47;;
60710;SDS011;46554;48.138;8.420;2023-05-23T09:45:48;5.57;;;3.05;;
60710;SDS011;46554;48.138;8.420;2023-05-23T09:48:13;4.32;;;2.67;;
60710;SDS011;46554;48.138;8.420;2023-05-23T09:50:39;6.05;;;3.28;;
60710;SDS011;46554;48.138;8.420;2023-05-23T09:53:06;7.63;;;3.40;;
60710;SDS011;46554;48.138;8.420;2023-05-23T09:55:33;5.10;;;4.18;;
60710;SDS011;46554;48.138;8.420;2023-05-23T09:57:58;4.13;;;2.72;;
60710;SDS011;46554;48.138;8.420;2023-05-23T10:00:24;9.88;;;4.38;;
60710;SDS011;46554;48.138;8.420;2023-05-23T10:08:07;7.13;;;3.30;;
60710;SDS011;46554;48.138;8.420;2023-05-23T10:10:34;5.88;;;3.63;;
60710;SDS011;46554;48.138;8.420;2023-05-23T10:13:20;5.88;;;3.45;;
60710;SDS011;46554;48.138;8.420;2023-05-23T10:15:45;5.22;;;3.53;;
60710;SDS011;46554;48.138;8.420;2023-05-23T10:18:17;6.18;;;3.05;;
60710;SDS011;46554;48.138;8.420;2023-05-23T10:20:46;4.07;;;2.85;;
60710;SDS011;46554;48.138;8.420;2023-05-23T10:23:15;5.22;;;4.53;;
60710;SDS011;46554;48.138;8.420;2023-05-23T10:26:08;2.65;;;2.45;;
60710;SDS011;46554;48.138;8.420;2023-05-23T10:28:35;2.90;;;2.42;;
60710;SDS011;46554;48.138;8.420;2023-05-23T10:31:03;7.43;;;3.97;;
60710;SDS011;46554;48.138;8.420;2023-05-23T10:33:32;5.50;;;3.60;;
60710;SDS011;46554;48.138;8.420;2023-05-23T10:36:03;8.05;;;3.72;;
60710;SDS011;46554;48.138;8.420;2023-05-23T10:38:37;8.75;;;3.88;;
60710;SDS011;46554;48.138;8.420;2023-05-23T10:41:10;7.60;;;3.38;;
60710;SDS011;46554;48.138;8.420;2023-05-23T10:46:56;4.50;;;3.28;;
60710;SDS011;46554;48.138;8.420;2023-05-23T10:52:08;5.90;;;4.32;;
60710;SDS011;46554;48.138;8.420;2023-05-23T10:54:37;6.00;;;3.60;;
60710;SDS011;46554;48.138;8.420;2023-05-23T10:57:10;8.80;;;3.33;;
60710;SDS011;46554;48.138;8.420;2023-05-23T10:59:40;9.35;;;2.80;;
60710;SDS011;46554;48.138;8.420;2023-05-23T11:02:10;3.45;;;3.15;;
60710;SDS011;46554;48.138;8.420;2023-05-23T11:04:43;4.18;;;3.42;;
60710;SDS011;46554;48.138;8.420;2023-05-23T11:07:28;5.47;;;3.60;;
60710;SDS011;46554;48.138;8.420;2023-05-23T11:10:08;4.95;;;4.53;;
60710;SDS011;46554;48.138;8.420;2023-05-23T11:12:36;5.55;;;3.20;;
60710;SDS011;46554;48.138;8.420;2023-05-23T11:15:24;4.90;;;3.50;;
60710;SDS011;46554;48.138;8.420;2023-05-23T11:20:16;6.82;;;4.13;;
60710;SDS011;46554;48.138;8.420;2023-05-23T11:22:58;11.93;;;3.88;;
60710;SDS011;46554;48.138;8.420;2023-05-23T11:25:40;4.65;;;3.17;;
60710;SDS011;46554;48.138;8.420;2023-05-23T11:28:07;3.60;;;3.20;;
60710;SDS011;46554;48.138;8.420;2023-05-23T11:30:35;4.65;;;3.38;;
60710;SDS011;46554;48.138;8.420;2023-05-23T11:33:10;3.65;;;2.15;;
60710;SDS011;46554;48.138;8.420;2023-05-23T11:35:40;6.82;;;2.85;;
60710;SDS011;46554;48.138;8.420;2023-05-23T11:38:13;5.47;;;3.83;;
60710;SDS011;46554;48.138;8.420;2023-05-23T11:40:45;5.45;;;2.88;;
60710;SDS011;46554;48.138;8.420;2023-05-23T11:43:12;6.65;;;4.35;;
60710;SDS011;46554;48.138;8.420;2023-05-23T11:45:39;2.60;;;2.25;;
60710;SDS011;46554;48.138;8.420;2023-05-23T11:48:08;20.58;;;3.85;;
60710;SDS011;46554;48.138;8.420;2023-05-23T11:50:48;3.28;;;2.30;;
60710;SDS011;46554;48.138;8.420;2023-05-23T11:53:18;3.28;;;2.67;;
60710;SDS011;46554;48.138;8.420;2023-05-23T11:55:55;6.15;;;3.95;;
60710;SDS011;46554;48.138;8.420;2023-05-23T11:58:25;4.88;;;4.47;;
60710;SDS011;46554;48.138;8.420;2023-05-23T12:01:01;4.75;;;3.65;;
60710;SDS011;46554;48.138;8.420;2023-05-23T12:03:28;3.72;;;2.50;;
60710;SDS011;46554;48.138;8.420;2023-05-23T12:05:57;3.88;;;2.95;;
60710;SDS011;46554;48.138;8.420;2023-05-23T12:08:26;9.68;;;3.35;;
60710;SDS011;46554;48.138;8.420;2023-05-23T12:10:51;3.90;;;3.15;;
60710;SDS011;46554;48.138;8.420;2023-05-23T12:13:20;3.95;;;3.05;;
60710;SDS011;46554;48.138;8.420;2023-05-23T12:15:58;2.38;;;2.15;;
60710;SDS011;46554;48.138;8.420;2023-05-23T12:18:27;3.28;;;2.60;;
60710;SDS011;46554;48.138;8.420;2023-05-23T12:20:59;3.42;;;2.53;;
60710;SDS011;46554;48.138;8.420;2023-05-23T12:23:27;4.35;;;2.63;;
60710;SDS011;46554;48.138;8.420;2023-05-23T12:25:53;6.57;;;2.55;;
60710;SDS011;46554;48.138;8.420;2023-05-23T12:28:20;8.25;;;4.05;;
60710;SDS011;46554;48.138;8.420;2023-05-23T12:30:46;4.47;;;2.65;;
60710;SDS011;46554;48.138;8.420;2023-05-23T12:33:13;4.75;;;3.22;;
60710;SDS011;46554;48.138;8.420;2023-05-23T12:35:42;5.80;;;2.70;;
60710;SDS011;46554;48.138;8.420;2023-05-23T12:38:13;2.92;;;2.30;;
60710;SDS011;46554;48.138;8.420;2023-05-23T12:40:40;2.55;;;1.98;;
60710;SDS011;46554;48.138;8.420;2023-05-23T12:43:07;2.90;;;2.58;;
60710;SDS011;46554;48.138;8.420;2023-05-23T12:45:34;2.70;;;2.47;;
60710;SDS011;46554;48.138;8.420;2023-05-23T12:48:00;2.95;;;2.63;;
60710;SDS011;46554;48.138;8.420;2023-05-23T12:50:29;4.13;;;3.20;;
60710;SDS011;46554;48.138;8.420;2023-05-23T12:52:57;3.80;;;3.33;;
60710;SDS011;46554;48.138;8.420;2023-05-23T12:55:23;3.55;;;2.70;;
60710;SDS011;46554;48.138;8.420;2023-05-23T12:57:48;7.40;;;2.38;;
60710;SDS011;46554;48.138;8.420;2023-05-23T13:00:16;3.20;;;2.90;;
60710;SDS011;46554;48.138;8.420;2023-05-23T13:02:43;4.10;;;2.42;;
60710;SDS011;46554;48.138;8.420;2023-05-23T13:05:08;3.80;;;1.88;;
60710;SDS011;46554;48.138;8.420;2023-05-23T13:07:34;2.05;;;1.75;;
60710;SDS011;46554;48.138;8.420;2023-05-23T13:10:00;3.42;;;3.13;;
60710;SDS011;46554;48.138;8.420;2023-05-23T13:12:30;4.32;;;2.20;;
60710;SDS011;46554;48.138;8.420;2023-05-23T13:14:56;2.85;;;2.42;;
60710;SDS011;46554;48.138;8.420;2023-05-23T13:17:22;2.72;;;2.25;;
60710;SDS011;46554;48.138;8.420;2023-05-23T13:19:48;2.45;;;2.28;;
60710;SDS011;46554;48.138;8.420;2023-05-23T13:22:15;2.22;;;2.08;;
60710;SDS011;46554;48.138;8.420;2023-05-23T13:24:41;6.15;;;2.80;;
60710;SDS011;46554;48.138;8.420;2023-05-23T13:27:07;3.22;;;2.85;;
60710;SDS011;46554;48.138;8.420;2023-05-23T13:29:35;3.13;;;2.17;;
60710;SDS011;46554;48.138;8.420;2023-05-23T13:32:03;1.50;;;1.33;;
60710;SDS011;46554;48.138;8.420;2023-05-23T13:34:31;3.42;;;2.72;;
60710;SDS011;46554;48.138;8.420;2023-05-23T13:36:59;3.90;;;2.03;;
60710;SDS011;46554;48.138;8.420;2023-05-23T13:39:26;4.68;;;2.53;;
60710;SDS011;46554;48.138;8.420;2023-05-23T13:41:52;2.03;;;1.90;;
60710;SDS011;46554;48.138;8.420;2023-05-23T13:44:17;4.75;;;2.95;;
60710;SDS011;46554;48.138;8.420;2023-05-23T13:46:43;4.55;;;2.90;;
60710;SDS011;46554;48.138;8.420;2023-05-23T13:49:08;2.15;;;1.95;;
60710;SDS011;46554;48.138;8.420;2023-05-23T13:51:34;4.38;;;2.22;;
60710;SDS011;46554;48.138;8.420;2023-05-23T13:54:01;2.88;;;2.20;;
60710;SDS011;46554;48.138;8.420;2023-05-23T13:56:28;4.05;;;1.90;;
60710;SDS011;46554;48.138;8.420;2023-05-23T13:58:54;4.45;;;2.22;;
60710;SDS011;46554;48.138;8.420;2023-05-23T14:01:21;2.92;;;2.55;;
60710;SDS011;46554;48.138;8.420;2023-05-23T14:03:48;1.55;;;1.20;;
60710;SDS011;46554;48.138;8.420;2023-05-23T14:06:15;6.65;;;3.08;;
60710;SDS011;46554;48.138;8.420;2023-05-23T14:08:41;1.77;;;1.67;;
60710;SDS011;46554;48.138;8.420;2023-05-23T14:11:07;4.28;;;1.85;;
60710;SDS011;46554;48.138;8.420;2023-05-23T14:13:34;2.20;;;2.00;;
60710;SDS011;46554;48.138;8.420;2023-05-23T14:16:00;3.70;;;3.03;;
60710;SDS011;46554;48.138;8.420;2023-05-23T14:18:27;2.90;;;2.38;;
60710;SDS011;46554;48.138;8.420;2023-05-23T14:20:53;2.58;;;1.83;;
60710;SDS011;46554;48.138;8.420;2023-05-23T14:23:20;1.60;;;1.40;;
60710;SDS011;46554;48.138;8.420;2023-05-23T14:25:48;2.00;;;1.40;;
60710;SDS011;46554;48.138;8.420;2023-05-23T14:28:16;2.25;;;2.05;;
60710;SDS011;46554;48.138;8.420;2023-05-23T14:30:41;3.85;;;1.35;;
60710;SDS011;46554;48.138;8.420;2023-05-23T14:33:09;1.95;;;1.83;;
60710;SDS011;46554;48.138;8.420;2023-05-23T14:35:35;2.00;;;1.50;;
60710;SDS011;46554;48.138;8.420;2023-05-23T14:38:00;3.95;;;2.60;;
60710;SDS011;46554;48.138;8.420;2023-05-23T14:40:25;2.22;;;1.15;;
60710;SDS011;46554;48.138;8.420;2023-05-23T14:42:51;1.63;;;1.52;;
60710;SDS011;46554;48.138;8.420;2023-05-23T14:45:16;4.72;;;1.55;;
60710;SDS011;46554;48.138;8.420;2023-05-23T14:47:42;1.23;;;1.20;;
60710;SDS011;46554;48.138;8.420;2023-05-23T14:50:07;1.88;;;1.77;;
60710;SDS011;46554;48.138;8.420;2023-05-23T14:52:36;1.23;;;1.23;;
60710;SDS011;46554;48.138;8.420;2023-05-23T14:57:59;3.38;;;1.17;;
60710;SDS011;46554;48.138;8.420;2023-05-23T15:00:24;1.65;;;1.55;;
60710;SDS011;46554;48.138;8.420;2023-05-23T15:02:50;9.27;;;2.65;;
60710;SDS011;46554;48.138;8.420;2023-05-23T15:05:16;2.05;;;1.52;;
60710;SDS011;46554;48.138;8.420;2023-05-23T15:07:41;2.13;;;1.92;;
60710;SDS011;46554;48.138;8.420;2023-05-23T15:10:08;2.75;;;1.40;;
60710;SDS011;46554;48.138;8.420;2023-05-23T15:12:33;3.75;;;2.13;;
60710;SDS011;46554;48.138;8.420;2023-05-23T15:14:59;2.70;;;1.58;;